This is the latest recevied weather packets stored in our database for station/object AA4OM-2. If no packets are shown the sender has not sent any weather packets the latest 10 day(s).
| Time | Temp. | Humidity | Pressure | Rain* | Wind** | Luminosity | Snow |
|---|---|---|---|---|---|---|---|
| 1777388444 | 22.22° C | 82% | 1017.2 hPa | 0 mm | - | 193 W/m² | - |
| 1777388144 | 22.22° C | 84% | 1017 hPa | 0 mm | - | 143 W/m² | - |
| 1777387233 | 21.67° C | 85% | 1017 hPa | 0 mm | - | 212 W/m² | - |
| 1777386927 | 21.67° C | 87% | 1016.9 hPa | 0 mm | - | 265 W/m² | - |
| 1777386625 | 21.11° C | 86% | 1016.9 hPa | 0 mm | - | 227 W/m² | - |
| 1777386322 | 21.11° C | 86% | 1016.8 hPa | 0 mm | - | 213 W/m² | - |
| 1777386020 | 21.11° C | 87% | 1016.7 hPa | 0 mm | - | 310 W/m² | - |
| 1777385716 | 21.11° C | 86% | 1016.4 hPa | 0 mm | - | 105 W/m² | - |
| 1777383286 | 20° C | 93% | 1016.3 hPa | 0 mm | - | 92 W/m² | - |
| 1777382374 | 18.89° C | 98% | 1016.3 hPa | 0 mm | - | 184 W/m² | - |
| 1777381767 | 18.89° C | 98% | 1016.5 hPa | 0 mm | - | 116 W/m² | - |
| 1777381461 | 18.33° C | 98% | 1016.3 hPa | 0 mm | - | 143 W/m² | - |
| 1777381158 | 18.33° C | 98% | 1016.3 hPa | 0 mm | - | 46 W/m² | - |
| 1777380855 | 17.78° C | 98% | 1016.3 hPa | 0 mm | - | 49 W/m² | - |
| 1777380552 | 17.78° C | 98% | 1016.4 hPa | 0 mm | - | 55 W/m² | - |
| 1777380248 | 17.22° C | 98% | 1016.2 hPa | 0 mm | - | 41 W/m² | - |
| 1777378111 | 16.11° C | 98% | 1015.9 hPa | 0 mm | - | 20 W/m² | - |
| 1777377806 | 16.11° C | 98% | 1015.7 hPa | 0 mm | - | 15 W/m² | - |
| 1777375377 | 16.67° C | 98% | 1015.3 hPa | 0 mm | - | 7 W/m² | - |
| 1777375074 | 16.67° C | 98% | 1015.2 hPa | 0 mm | - | 5 W/m² | - |
| 1777374774 | 16.67° C | 97% | 1015 hPa | 0 mm | - | 3 W/m² | - |
| 1777374168 | 16.67° C | 97% | 1014.6 hPa | 0 mm | - | 1 W/m² | - |
| 1777372647 | 17.22° C | 97% | 1014.2 hPa | 0 mm | - | 0 W/m² | - |
| 1777372341 | 17.22° C | 97% | 1014.2 hPa | 0 mm | - | 0 W/m² | - |
| 1777372039 | 17.22° C | 97% | 1014 hPa | 0 mm | - | 0 W/m² | - |
* Rain latest hour (hover to see other rain measurements)
** Current wind speed in m/s (hover to see current wind gust speed)